Ungava - eastern half: Past 24 Hour Conditions

 

Cape Dorset Airport

03:00 PM EDT 31 October 2014
This table is a summary of hourly weather conditions for the past 24 hours.
Date / Time
(EDT)
Wind(knots) Conditions Visibility(km) Pressure(kPa) Air tempC) Relative humidity(%) Dew pointC) Wind Chill
31 October 2014
15:00 NNW 14 gust 20 Drifting Snow 24 100.8 -2 87 -4 -9
14:00 NW 17 gust 23 Drifting Snow 24 100.8 -3 86 -5 -10
13:00 NNW 18 gust 25 Drifting Snow 24 100.8 -3 86 -5 -11
12:00 NNW 19 gust 26 Drifting Snow 24 100.7 -4 87 -6 -12
11:00 NW 20 Drifting Snow 24 100.8 -4 86 -6 -12
10:00 NW 19 gust 27 Drifting Snow 24 100.8 -4 87 -6 -13
9:00 NW 15 gust 23 Drifting Snow 24 100.8 -5 87 -6 -12
8:00 NW 16 gust 26 Light Snow 24 100.8 -5 86 -7 -13
7:00 NW 16 gust 22 Light Snow 24 100.8 -5 85 -7 -13
6:00 WNW 17 gust 22 Cloudy 16 100.8 -6 86 -8 -14
5:00 WNW 18 Cloudy 16 100.8 -5 85 -7 -14
4:00 NNW 18 gust 25 Cloudy 16 100.8 -6 84 -8 -14
3:00 NNW 21 gust 28 Cloudy 16 100.8 -6 85 -8 -15
2:00 N 30 gust 38 Light Snow 8 100.7 -6 84 -8 -17
1:00 N 27 gust 40 Light Snow 5 100.7 -6 85 -8 -17
0:00 N 25 gust 38 Light Snow 4 100.7 -6 84 -9 -16
30 October 2014
23:00 N 20 gust 32 Light Snow 8 100.8 -6 85 -9 -16
22:00 N 25 gust 37 Light Snow 4 100.8 -7 84 -9 -17
21:00 N 25 gust 36 Light Snow 3 100.8 -7 87 -9 -17
20:00 N 22 gust 35 Light Snow 3 100.8 -7 87 -9 -17
19:00 N 26 gust 34 Light Snow 8 100.8 -7 85 -9 -18
18:00 N 17 gust 28 Partly Cloudy 16 100.8 -7 86 -9 -16
17:00 N 20 gust 30 Light Snow 5 100.8 -7 87 -9 -17
16:00 NNE 13 gust 25 Light Snow 5 100.8 -7 88 -9 -15
15:00 N 12 gust 21 Light Snow 10 100.8 -7 85 -9 -14
 
Map of Arctic - Eastern Arctic marine weather areas Baker Lake Airport Chesterfield Inlet Airport Coral Harbour Airport Gjoa Haven Airport Kugaaruk Airport Rankin Inlet Airport Shepherd Bay Airport Whale Cove Airport Arctic Bay Brevoort Island Qikiqtarjuaq Airport Cape Dorset Airport Cape Dyer Cape Hooper Clyde Airport Grise Fiord Airport Hall Beach Airport Igloolik Airport Iqaluit Airport Longstaff Bluff Pangnirtung Airport Pond Inlet Airport Repulse Bay Airport Resolute Airport Resolution Island Rowley Island Airport Taloyoak Airport Wager Bay Akulivik Airport Ivujivik Airport Puvirnituq Airport Kangiqsujuaq Airport Kangirsuk Airport Quaqtaq Airport Tasiujaq Airport Cape Kakkiviak Cape Kiglapait Nain Airport Saglek Cape Mercy Kimmirut Airport Aupaluk Airport Salluit Airport Kangiqsualujjuaq Airport Fort Ross
Legend: buoyBuoy land stationLand Station